Time;durP1;ratioP1;P1;durP2;ratioP2;P2;SDS_P1;SDS_P2;PMS_P1;PMS_P2;Temp;Humidity;BMP_temperature;BMP_pressure;BME280_temperature;BME280_humidity;BME280_pressure;Samples;Min_cycle;Max_cycle;Signal;HPM_P1;HPM_P2
2022/11/17 00:02:00;;;;;;;3.23;2.20;;;;;;;-141.59;100.00;61776.25;5102634;28;20216;-75
2022/11/17 00:04:28;;;;;;;2.30;1.67;;;;;;;-141.59;100.00;61776.25;5078360;28;20251;-75
2022/11/17 00:06:55;;;;;;;2.33;1.73;;;;;;;-141.59;100.00;61776.25;5100301;28;20204;-77
2022/11/17 00:09:22;;;;;;;2.30;1.90;;;;;;;-141.59;100.00;61776.25;5095180;28;20283;-75
2022/11/17 00:14:36;;;;;;;3.23;1.63;;;;;;;-141.59;100.00;61776.25;5096452;28;20234;-76
2022/11/17 00:17:05;;;;;;;1.83;1.50;;;;;;;-141.59;100.00;61776.25;5103998;28;20197;-76
2022/11/17 00:22:17;;;;;;;1.70;1.60;;;;;;;-141.59;100.00;61776.25;5089056;28;20204;-76
2022/11/17 00:24:45;;;;;;;2.37;1.70;;;;;;;-141.59;100.00;61776.25;5094997;28;20200;-75
2022/11/17 00:27:13;;;;;;;1.73;1.60;;;;;;;-141.59;100.00;61776.25;5098158;28;20227;-77
2022/11/17 00:29:40;;;;;;;2.23;1.80;;;;;;;-141.59;100.00;61776.25;5080234;28;20192;-76
2022/11/17 00:34:56;;;;;;;3.40;1.60;;;;;;;-141.59;100.00;61776.25;5084307;28;20208;-75
2022/11/17 00:37:24;;;;;;;4.17;1.90;;;;;;;-141.59;100.00;61776.25;5099260;28;20185;-75
2022/11/17 00:39:51;;;;;;;2.63;2.03;;;;;;;-141.59;100.00;61776.25;5083545;28;20201;-76
2022/11/17 00:42:19;;;;;;;2.33;1.80;;;;;;;-141.59;100.00;61776.25;5075538;28;20208;-75
2022/11/17 00:44:47;;;;;;;2.50;1.90;;;;;;;-141.59;100.00;61776.25;5073372;28;20205;-75
2022/11/17 00:47:14;;;;;;;2.70;1.77;;;;;;;-141.59;100.00;61776.25;5077369;28;20224;-75
2022/11/17 00:49:41;;;;;;;2.60;1.77;;;;;;;-141.59;100.00;61776.25;5073773;28;20295;-76
2022/11/17 00:52:09;;;;;;;2.23;1.80;;;;;;;-141.59;100.00;61776.25;5079170;28;20193;-75
2022/11/17 00:54:37;;;;;;;3.33;1.60;;;;;;;-141.59;100.00;61776.25;5087808;28;20207;-76
2022/11/17 00:57:04;;;;;;;1.80;1.53;;;;;;;-141.59;100.00;61776.25;5079541;28;20201;-76
2022/11/17 00:59:32;;;;;;;1.77;1.47;;;;;;;-141.59;100.00;61776.25;5102007;28;20206;-75
2022/11/17 01:01:59;;;;;;;2.67;1.80;;;;;;;-141.59;100.00;61776.25;5095596;28;20208;-75
2022/11/17 01:04:26;;;;;;;3.03;1.77;;;;;;;-141.59;100.00;61776.25;5078079;28;20200;-75
2022/11/17 01:06:53;;;;;;;2.00;1.57;;;;;;;-141.59;100.00;61776.25;5086779;28;20203;-76
2022/11/17 01:09:22;;;;;;;1.70;1.50;;;;;;;-141.59;100.00;61776.25;5077823;28;20229;-75
2022/11/17 01:11:51;;;;;;;3.23;1.50;;;;;;;-141.59;100.00;61776.25;5076545;28;20225;-75
2022/11/17 01:14:20;;;;;;;2.47;1.50;;;;;;;-141.59;100.00;61776.25;5090344;28;20204;-76
2022/11/17 01:16:49;;;;;;;2.53;1.60;;;;;;;-141.59;100.00;61776.25;5072762;28;20208;-75
2022/11/17 01:19:17;;;;;;;1.87;1.47;;;;;;;-141.59;100.00;61776.25;5095786;28;20205;-75
2022/11/17 01:21:45;;;;;;;2.37;2.17;;;;;;;-141.59;100.00;61776.25;5076756;28;20200;-75
2022/11/17 01:24:14;;;;;;;1.87;1.60;;;;;;;-141.59;100.00;61776.25;5073587;28;20205;-76
2022/11/17 01:26:42;;;;;;;2.00;1.50;;;;;;;-141.59;100.00;61776.25;5096139;28;20197;-75
2022/11/17 01:29:12;;;;;;;1.73;1.50;;;;;;;-141.59;100.00;61776.25;5088622;28;20228;-76
2022/11/17 01:31:42;;;;;;;3.10;1.63;;;;;;;-141.59;100.00;61776.25;5067689;28;20228;-76
2022/11/17 01:34:11;;;;;;;1.97;1.53;;;;;;;-141.59;100.00;61776.25;5084545;28;20204;-77
2022/11/17 01:39:22;;;;;;;1.77;1.50;;;;;;;-141.59;100.00;61776.25;5075017;28;20205;-76
2022/11/17 01:41:49;;;;;;;1.67;1.50;;;;;;;-141.59;100.00;61776.25;5078832;28;20206;-75
2022/11/17 01:45:02;;;;;;;1.30;1.20;;;;;;;-141.59;100.00;61776.25;5077330;28;20219;-75
2022/11/17 01:47:40;;;;;;;1.90;1.50;;;;;;;-141.59;100.00;61776.25;5022568;28;20286;-75
2022/11/17 01:50:30;;;;;;;1.47;1.37;;;;;;;-141.59;100.00;61776.25;5072347;28;20196;-75
2022/11/17 01:52:59;;;;;;;1.43;1.20;;;;;;;-141.59;100.00;61776.25;5071159;28;20253;-75
2022/11/17 01:55:30;;;;;;;1.60;1.17;;;;;;;-141.59;100.00;61776.25;5072781;28;20208;-75
2022/11/17 01:58:03;;;;;;;2.10;1.40;;;;;;;-141.59;100.00;61776.25;5085783;28;20291;-75
2022/11/17 02:00:31;;;;;;;1.43;1.20;;;;;;;-141.59;100.00;61776.25;5080259;28;20201;-75
2022/11/17 02:02:59;;;;;;;1.40;1.30;;;;;;;-141.59;100.00;61776.25;5075730;28;20302;-75
2022/11/17 02:05:40;;;;;;;2.23;1.30;;;;;;;-141.59;100.00;61776.25;5082299;28;20205;-75
2022/11/17 02:08:09;;;;;;;1.90;1.43;;;;;;;-141.59;100.00;61776.25;5073633;28;20213;-75
2022/11/17 02:10:37;;;;;;;4.87;1.60;;;;;;;-141.59;100.00;61776.25;5076498;28;20221;-81
2022/11/17 02:13:07;;;;;;;2.53;1.30;;;;;;;-141.59;100.00;61776.25;5084247;28;20255;-81
2022/11/17 02:15:34;;;;;;;1.20;1.10;;;;;;;-141.59;100.00;61776.25;5077653;28;20197;-81
2022/11/17 02:18:02;;;;;;;1.57;1.20;;;;;;;-141.59;100.00;61776.25;5070097;28;20208;-80
2022/11/17 02:20:55;;;;;;;1.37;1.00;;;;;;;-141.59;100.00;61776.25;5068930;28;20332;-81
2022/11/17 02:23:50;;;;;;;2.30;1.27;;;;;;;-141.59;100.00;61776.25;5083888;28;20236;-81
2022/11/17 02:26:32;;;;;;;2.17;1.30;;;;;;;-141.59;100.00;61776.25;5077568;28;20204;-80
2022/11/17 02:29:09;;;;;;;1.27;1.17;;;;;;;-141.59;100.00;61776.25;5076735;28;20268;-80
2022/11/17 02:31:45;;;;;;;1.37;1.20;;;;;;;-141.59;100.00;61776.25;5083701;28;20345;-78
2022/11/17 02:34:23;;;;;;;1.33;1.20;;;;;;;-141.59;100.00;61776.25;5077859;28;20287;-80
2022/11/17 02:36:58;;;;;;;1.30;1.20;;;;;;;-141.59;100.00;61776.25;5081243;28;20209;-81
2022/11/17 02:39:33;;;;;;;3.00;1.20;;;;;;;-141.59;100.00;61776.25;5078176;28;20232;-80
2022/11/17 02:42:09;;;;;;;1.77;1.30;;;;;;;-141.59;100.00;61776.25;5074807;28;20201;-79
2022/11/17 02:44:43;;;;;;;1.73;1.20;;;;;;;-141.59;100.00;61776.25;5079284;28;20240;-80
2022/11/17 02:47:15;;;;;;;2.17;1.13;;;;;;;-141.59;100.00;61776.25;5081804;28;20205;-80
2022/11/17 02:49:47;;;;;;;1.30;1.00;;;;;;;-141.59;100.00;61776.25;5082282;28;20225;-81
2022/11/17 02:52:17;;;;;;;2.10;1.03;;;;;;;-141.59;100.00;61776.25;5082950;28;20248;-80
2022/11/17 02:54:44;;;;;;;1.53;0.97;;;;;;;-141.59;100.00;61776.25;5078378;28;20201;-80
2022/11/17 02:57:29;;;;;;;1.40;0.90;;;;;;;-141.59;100.00;61776.25;5072673;28;20194;-80
2022/11/17 03:00:01;;;;;;;0.80;0.80;;;;;;;-141.59;100.00;61776.25;5081003;28;20241;-80
2022/11/17 03:02:43;;;;;;;1.00;0.90;;;;;;;-141.59;100.00;61776.25;5074667;28;20217;-81
2022/11/17 03:05:15;;;;;;;1.17;0.90;;;;;;;-141.59;100.00;61776.25;5081751;28;20208;-79
2022/11/17 03:08:03;;;;;;;1.10;0.90;;;;;;;-141.59;100.00;61776.25;5082030;28;20286;-81
2022/11/17 03:10:41;;;;;;;2.87;0.93;;;;;;;-141.59;100.00;61776.25;5072565;28;20225;-81
2022/11/17 03:13:16;;;;;;;1.07;1.00;;;;;;;-141.59;100.00;61776.25;5076097;28;20194;-81
2022/11/17 03:15:51;;;;;;;1.63;1.20;;;;;;;-141.59;100.00;61776.25;5082698;28;20215;-80
2022/11/17 03:18:25;;;;;;;1.70;1.10;;;;;;;-141.59;100.00;61776.25;5082293;28;20212;-81
2022/11/17 03:21:03;;;;;;;1.30;1.10;;;;;;;-141.59;100.00;61776.25;5083655;28;20340;-81
2022/11/17 03:23:36;;;;;;;1.20;0.93;;;;;;;-141.59;100.00;61776.25;5072749;28;20212;-81
2022/11/17 03:26:08;;;;;;;1.13;1.00;;;;;;;-141.59;100.00;61776.25;5088778;28;20221;-81
2022/11/17 03:28:37;;;;;;;2.90;1.30;;;;;;;-141.59;100.00;61776.25;5071125;28;20243;-81
2022/11/17 03:31:08;;;;;;;2.47;1.10;;;;;;;-141.59;100.00;61776.25;5080077;28;20224;-81
2022/11/17 03:33:37;;;;;;;1.70;1.20;;;;;;;-141.59;100.00;61776.25;5076537;28;20202;-82
2022/11/17 03:36:11;;;;;;;2.37;1.40;;;;;;;-141.59;100.00;61776.25;5077370;28;20238;-80
2022/11/17 03:38:44;;;;;;;1.40;1.30;;;;;;;-141.59;100.00;61776.25;5082481;28;20214;-81
2022/11/17 03:41:14;;;;;;;1.67;1.30;;;;;;;-141.59;100.00;61776.25;5076631;28;20251;-80
2022/11/17 03:43:44;;;;;;;1.30;1.20;;;;;;;-141.59;100.00;61776.25;5076237;28;20198;-81
2022/11/17 03:46:17;;;;;;;1.53;1.40;;;;;;;-141.59;100.00;61776.25;5096528;28;20244;-81
2022/11/17 03:48:50;;;;;;;1.30;1.20;;;;;;;-141.59;100.00;61776.25;5075173;28;20318;-81
2022/11/17 03:51:20;;;;;;;2.83;1.40;;;;;;;-141.59;100.00;61776.25;5083123;28;20206;-79
2022/11/17 03:53:48;;;;;;;1.50;1.30;;;;;;;-141.59;100.00;61776.25;5074346;28;20215;-80
2022/11/17 03:56:28;;;;;;;1.73;1.37;;;;;;;-141.59;100.00;61776.25;5075576;28;20204;-81
2022/11/17 03:59:00;;;;;;;1.40;1.20;;;;;;;-141.59;100.00;61776.25;5080158;28;20205;-81
2022/11/17 04:01:31;;;;;;;2.87;1.30;;;;;;;-141.59;100.00;61776.25;5074765;28;20201;-79
2022/11/17 04:03:58;;;;;;;1.77;1.30;;;;;;;-141.59;100.00;61776.25;5070983;28;20271;-80
2022/11/17 04:06:25;;;;;;;1.40;1.30;;;;;;;-141.59;100.00;61776.25;5071398;28;20202;-81
2022/11/17 04:08:53;;;;;;;1.33;1.17;;;;;;;-141.59;100.00;61776.25;5077915;28;20224;-79
2022/11/17 04:16:50;;;;;;;1.87;1.13;;;;;;;-141.59;100.00;61776.25;5071902;28;20241;-79
2022/11/17 04:19:17;;;;;;;1.83;1.20;;;;;;;-141.59;100.00;61776.25;5083649;28;20200;-81
2022/11/17 04:21:45;;;;;;;2.17;1.07;;;;;;;-141.59;100.00;61776.25;5078616;28;20304;-81
2022/11/17 04:24:12;;;;;;;1.93;1.00;;;;;;;-141.59;100.00;61776.25;5078323;28;20209;-79
2022/11/17 04:29:24;;;;;;;1.20;1.00;;;;;;;-141.59;100.00;61776.25;5073073;28;20218;-81
2022/11/17 04:31:52;;;;;;;1.10;1.00;;;;;;;-141.59;100.00;61776.25;5080529;28;20230;-80
2022/11/17 04:34:20;;;;;;;1.10;0.90;;;;;;;-141.59;100.00;61776.25;5071609;28;20235;-81
2022/11/17 04:36:47;;;;;;;1.00;0.90;;;;;;;-141.59;100.00;61776.25;5081382;28;20200;-80
2022/11/17 04:39:15;;;;;;;1.73;1.10;;;;;;;-141.59;100.00;61776.25;5074401;28;20265;-80
2022/11/17 04:41:56;;;;;;;1.13;1.00;;;;;;;-141.59;100.00;61776.25;5084104;28;20197;-79
2022/11/17 04:44:25;;;;;;;1.43;1.30;;;;;;;-141.59;100.00;61776.25;5090544;28;20198;-80
2022/11/17 04:46:54;;;;;;;1.30;1.10;;;;;;;-141.59;100.00;61776.25;5075116;28;20194;-80
2022/11/17 04:49:24;;;;;;;1.30;1.10;;;;;;;-141.59;100.00;61776.25;5081515;28;20228;-80
2022/11/17 04:51:52;;;;;;;2.67;1.30;;;;;;;-141.59;100.00;61776.25;5074310;28;20304;-80
2022/11/17 04:54:22;;;;;;;1.40;1.27;;;;;;;-141.59;100.00;61776.25;5072402;28;20193;-80
2022/11/17 04:56:50;;;;;;;1.33;1.00;;;;;;;-141.59;100.00;61776.25;5076950;28;20205;-79
2022/11/17 04:59:18;;;;;;;2.50;1.00;;;;;;;-141.59;100.00;61776.25;5067437;28;20208;-80
2022/11/17 05:01:45;;;;;;;1.20;1.00;;;;;;;-141.59;100.00;61776.25;5079960;28;20205;-80
2022/11/17 05:04:54;;;;;;;1.73;1.10;;;;;;;-141.59;100.00;61776.25;5084658;28;20209;-77
2022/11/17 05:07:02;;;;;;;1.03;1.00;;;;;;;-141.59;100.00;61776.25;5055252;28;20206;-81
2022/11/17 05:09:29;;;;;;;1.20;1.10;;;;;;;-141.59;100.00;61776.25;5072837;28;20225;-80
2022/11/17 05:14:41;;;;;;;1.17;1.00;;;;;;;-141.59;100.00;61776.25;5081722;28;20202;-80
2022/11/17 05:17:08;;;;;;;1.30;1.20;;;;;;;-141.59;100.00;61776.25;5070683;28;20200;-80
2022/11/17 05:19:39;;;;;;;1.43;1.33;;;;;;;-141.59;100.00;61776.25;5072270;28;20201;-81
2022/11/17 05:23:52;;;;;;;2.33;1.60;;;;;;;-141.59;100.00;61776.25;5077453;28;20263;-80
2022/11/17 05:24:54;;;;;;;1.40;1.30;;;;;;;-141.59;100.00;61776.25;5076427;28;20205;-80
2022/11/17 05:27:21;;;;;;;3.40;1.10;;;;;;;-141.59;100.00;61776.25;5074835;28;20201;-80
2022/11/17 05:29:49;;;;;;;1.30;1.20;;;;;;;-141.59;100.00;61776.25;5076775;28;20221;-80
2022/11/17 05:32:17;;;;;;;2.80;1.70;;;;;;;-141.59;100.00;61776.25;5078612;28;20276;-82
2022/11/17 05:34:45;;;;;;;1.50;1.40;;;;;;;-141.59;100.00;61776.25;5073534;28;21071;-80
2022/11/17 05:37:12;;;;;;;2.70;1.10;;;;;;;-141.59;100.00;61776.25;5083851;28;20204;-80
2022/11/17 05:39:39;;;;;;;1.60;1.10;;;;;;;-141.59;100.00;61776.25;5083483;28;20236;-80
2022/11/17 05:42:06;;;;;;;2.77;1.23;;;;;;;-141.59;100.00;61776.25;5077178;28;20192;-81
2022/11/17 05:44:33;;;;;;;1.50;1.30;;;;;;;-141.59;100.00;61776.25;5078451;28;20200;-81
2022/11/17 05:47:00;;;;;;;1.43;1.20;;;;;;;-141.59;100.00;61776.25;5071485;28;20219;-79
2022/11/17 05:49:28;;;;;;;1.20;1.10;;;;;;;-141.59;100.00;61776.25;5090495;28;20227;-81
2022/11/17 05:51:56;;;;;;;1.30;1.20;;;;;;;-141.59;100.00;61776.25;5094035;28;20268;-80
2022/11/17 05:54:23;;;;;;;1.40;1.30;;;;;;;-141.59;100.00;61776.25;5095089;28;20250;-81
2022/11/17 05:56:53;;;;;;;1.50;1.30;;;;;;;-141.59;100.00;61776.25;5080167;28;20211;-81
2022/11/17 05:59:25;;;;;;;2.87;1.50;;;;;;;-141.59;100.00;61776.25;5074666;28;20366;-80
2022/11/17 06:01:58;;;;;;;2.90;1.20;;;;;;;-141.59;100.00;61776.25;5076669;28;20212;-81
2022/11/17 06:04:25;;;;;;;2.20;1.30;;;;;;;-141.59;100.00;61776.25;5095122;28;20209;-80
2022/11/17 06:06:52;;;;;;;1.20;1.10;;;;;;;-141.59;100.00;61776.25;5099531;28;20264;-78
2022/11/17 06:09:21;;;;;;;1.27;1.10;;;;;;;-141.59;100.00;61776.25;5092123;28;20213;-81
2022/11/17 06:11:48;;;;;;;1.20;1.10;;;;;;;-141.59;100.00;61776.25;5094654;28;20225;-80
2022/11/17 06:14:15;;;;;;;1.30;1.20;;;;;;;-141.59;100.00;61776.25;5087703;28;20193;-81
2022/11/17 06:16:45;;;;;;;1.20;1.10;;;;;;;-141.59;100.00;61776.25;5097611;28;20208;-79
2022/11/17 06:19:18;;;;;;;1.10;0.90;;;;;;;-141.59;100.00;61776.25;5080305;28;20293;-80
2022/11/17 06:21:45;;;;;;;1.60;1.40;;;;;;;-141.59;100.00;61776.25;5074899;28;20243;-79
2022/11/17 06:24:12;;;;;;;2.43;1.77;;;;;;;-141.59;100.00;61776.25;5075427;28;20216;-80
2022/11/17 06:26:42;;;;;;;3.37;2.00;;;;;;;-141.59;100.00;61776.25;5075396;28;20285;-80
2022/11/17 06:29:11;;;;;;;3.07;1.23;;;;;;;-141.59;100.00;61776.25;5091730;28;20213;-79
2022/11/17 06:31:40;;;;;;;1.27;1.17;;;;;;;-141.59;100.00;61776.25;5092698;28;20224;-81
2022/11/17 06:34:07;;;;;;;2.67;1.20;;;;;;;-141.59;100.00;61776.25;5078966;28;20224;-81
2022/11/17 06:36:34;;;;;;;2.23;1.37;;;;;;;-141.59;100.00;61776.25;5078742;28;20208;-80
2022/11/17 06:39:01;;;;;;;1.40;1.30;;;;;;;-141.59;100.00;61776.25;5090938;28;20201;-80
2022/11/17 06:41:29;;;;;;;1.67;1.10;;;;;;;-141.59;100.00;61776.25;5071570;28;20208;-76
2022/11/17 06:43:57;;;;;;;1.80;1.50;;;;;;;-141.59;100.00;61776.25;5076314;28;20275;-76
2022/11/17 06:46:36;;;;;;;1.60;1.10;;;;;;;-141.59;100.00;61776.25;5073691;28;20209;-76
2022/11/17 06:49:05;;;;;;;1.43;1.20;;;;;;;-141.59;100.00;61776.25;5086323;28;20213;-77
2022/11/17 06:51:32;;;;;;;1.57;1.07;;;;;;;-141.59;100.00;61776.25;5095064;28;20205;-77
2022/11/17 06:53:59;;;;;;;2.53;1.93;;;;;;;-141.59;100.00;61776.25;5099391;28;20211;-75
2022/11/17 06:56:27;;;;;;;1.20;1.10;;;;;;;-141.59;100.00;61776.25;5097846;28;20200;-76
2022/11/17 06:58:55;;;;;;;2.50;1.70;;;;;;;-141.59;100.00;61776.25;5069242;28;20235;-77
2022/11/17 07:01:23;;;;;;;2.07;1.30;;;;;;;-141.59;100.00;61776.25;5073167;28;20243;-75
2022/11/17 07:03:50;;;;;;;4.73;1.80;;;;;;;-141.59;100.00;61776.25;5072687;28;20303;-76
2022/11/17 07:06:17;;;;;;;2.50;1.80;;;;;;;-141.59;100.00;61776.25;5088251;28;20193;-75
2022/11/17 07:08:46;;;;;;;1.40;1.30;;;;;;;-141.59;100.00;61776.25;5082363;28;20303;-76
2022/11/17 07:11:16;;;;;;;3.03;2.20;;;;;;;-141.59;100.00;61776.25;5095927;28;20228;-76
2022/11/17 07:13:43;;;;;;;2.57;1.80;;;;;;;-141.59;100.00;61776.25;5094021;28;20215;-76
2022/11/17 07:16:12;;;;;;;4.37;1.90;;;;;;;-141.59;100.00;61776.25;5093537;28;20212;-75
2022/11/17 07:18:41;;;;;;;2.43;1.80;;;;;;;-141.59;100.00;61776.25;5082033;28;20219;-75
2022/11/17 07:21:12;;;;;;;2.53;1.70;;;;;;;-141.59;100.00;61776.25;5103629;28;20212;-76
2022/11/17 07:23:41;;;;;;;1.27;1.17;;;;;;;-141.59;100.00;61776.25;5085205;28;20205;-75
2022/11/17 07:26:08;;;;;;;0.97;0.97;;;;;;;-141.59;100.00;61776.25;5100763;28;20196;-75
2022/11/17 07:28:36;;;;;;;3.57;2.13;;;;;;;-141.59;100.00;61776.25;5088125;28;20216;-75
2022/11/17 07:31:05;;;;;;;5.10;2.10;;;;;;;-141.59;100.00;61776.25;5079849;28;20228;-75
2022/11/17 07:33:33;;;;;;;5.13;2.00;;;;;;;-141.59;100.00;61776.25;5077100;28;20216;-75
2022/11/17 07:36:04;;;;;;;3.70;2.80;;;;;;;-141.59;100.00;61776.25;5084643;28;20303;-76
2022/11/17 07:38:33;;;;;;;3.97;2.03;;;;;;;-141.59;100.00;61776.25;5103636;28;20291;-75
2022/11/17 07:41:00;;;;;;;1.90;1.40;;;;;;;-141.59;100.00;61776.25;5098324;28;20218;-75
2022/11/17 07:43:28;;;;;;;2.13;1.30;;;;;;;-141.59;100.00;61776.25;5097184;28;20250;-75
2022/11/17 07:45:55;;;;;;;2.03;1.53;;;;;;;-141.59;100.00;61776.25;5081505;28;20204;-75
2022/11/17 07:48:22;;;;;;;2.97;2.10;;;;;;;-141.59;100.00;61776.25;5090845;28;20201;-76
2022/11/17 07:50:49;;;;;;;3.53;1.93;;;;;;;-141.59;100.00;61776.25;5087236;28;20221;-75
2022/11/17 07:53:19;;;;;;;2.10;1.80;;;;;;;-141.59;100.00;61776.25;5099234;28;20200;-75
2022/11/17 07:55:46;;;;;;;2.00;1.70;;;;;;;-141.59;100.00;61776.25;5098307;28;20219;-76
2022/11/17 07:58:13;;;;;;;3.00;2.23;;;;;;;-141.59;100.00;61776.25;5097157;28;20218;-75
2022/11/17 08:00:40;;;;;;;2.50;1.90;;;;;;;-141.59;100.00;61776.25;5098711;27;20207;-76
2022/11/17 08:03:08;;;;;;;2.27;1.70;;;;;;;-141.59;100.00;61776.25;5088533;28;20275;-76
2022/11/17 08:05:36;;;;;;;2.27;1.60;;;;;;;-141.59;100.00;61776.25;5082934;28;20364;-76
2022/11/17 08:08:06;;;;;;;1.90;1.30;;;;;;;-141.59;100.00;61776.25;5101304;28;20276;-75
2022/11/17 08:10:35;;;;;;;4.70;1.63;;;;;;;-141.59;100.00;61776.25;5076647;28;20265;-76
2022/11/17 08:13:02;;;;;;;4.30;2.40;;;;;;;-141.59;100.00;61776.25;5085190;28;20200;-77
2022/11/17 08:15:30;;;;;;;3.73;2.17;;;;;;;-141.59;100.00;61776.25;5081445;28;20197;-78
2022/11/17 08:17:59;;;;;;;2.23;1.80;;;;;;;-141.59;100.00;61776.25;5102337;28;20219;-82
2022/11/17 08:20:28;;;;;;;6.47;1.97;;;;;;;-141.59;100.00;61776.25;5080900;28;20197;-82
2022/11/17 08:22:56;;;;;;;2.37;1.70;;;;;;;-141.59;100.00;61776.25;5079234;28;20204;-82
2022/11/17 08:25:25;;;;;;;1.97;1.70;;;;;;;-141.59;100.00;61776.25;5094874;27;20257;-82
2022/11/17 08:27:56;;;;;;;2.23;1.63;;;;;;;-141.59;100.00;61776.25;5096010;28;20214;-84
2022/11/17 08:30:26;;;;;;;3.20;2.00;;;;;;;-141.59;100.00;61776.25;5083322;28;20247;-79
2022/11/17 08:32:55;;;;;;;3.33;2.10;;;;;;;-141.59;100.00;61776.25;5089831;28;20204;-79
2022/11/17 08:35:24;;;;;;;2.23;1.40;;;;;;;-141.59;100.00;61776.25;5080536;28;20200;-80
2022/11/17 08:37:51;;;;;;;2.17;1.97;;;;;;;-141.59;100.00;61776.25;5091300;28;20192;-80
2022/11/17 08:40:19;;;;;;;4.33;1.80;;;;;;;-141.59;100.00;61776.25;5082101;28;20295;-79
2022/11/17 08:42:47;;;;;;;4.53;2.93;;;;;;;-141.59;100.00;61776.25;5100003;28;20204;-79
2022/11/17 08:45:16;;;;;;;5.23;2.00;;;;;;;-141.59;100.00;61776.25;5095806;28;20191;-79
2022/11/17 08:47:43;;;;;;;2.93;1.80;;;;;;;-141.59;100.00;61776.25;5079225;28;20200;-79
2022/11/17 08:50:10;;;;;;;2.30;1.67;;;;;;;-141.59;100.00;61776.25;5091554;28;20243;-79
2022/11/17 08:52:37;;;;;;;2.70;1.23;;;;;;;-141.59;100.00;61776.25;5085659;28;20196;-79
2022/11/17 08:55:05;;;;;;;1.10;1.00;;;;;;;-141.59;100.00;61776.25;5092723;28;20420;-79
2022/11/17 08:57:33;;;;;;;2.80;1.07;;;;;;;-141.59;100.00;61776.25;5078984;28;20253;-79
2022/11/17 09:00:00;;;;;;;2.63;1.70;;;;;;;-141.59;100.00;61776.25;5077408;28;20272;-78
2022/11/17 09:02:29;;;;;;;1.20;1.10;;;;;;;-141.59;100.00;61776.25;5074570;28;20254;-79
2022/11/17 09:04:56;;;;;;;3.87;1.57;;;;;;;-141.59;100.00;61776.25;5077582;28;20204;-79
2022/11/17 09:07:23;;;;;;;1.50;1.40;;;;;;;-141.59;100.00;61776.25;5083809;28;20225;-79
2022/11/17 09:09:50;;;;;;;1.83;1.40;;;;;;;-141.59;100.00;61776.25;5073334;28;20267;-79
2022/11/17 09:12:17;;;;;;;2.87;1.80;;;;;;;-141.59;100.00;61776.25;5089685;28;20245;-79
2022/11/17 09:14:44;;;;;;;3.70;1.60;;;;;;;-141.59;100.00;61776.25;5080646;28;20218;-79
2022/11/17 09:17:11;;;;;;;1.27;1.17;;;;;;;-141.59;100.00;61776.25;5074725;28;20266;-79
2022/11/17 09:19:39;;;;;;;2.07;1.53;;;;;;;-141.59;100.00;61776.25;5079833;28;20286;-78
2022/11/17 09:22:08;;;;;;;2.93;1.57;;;;;;;-141.59;100.00;61776.25;5076562;28;20204;-79
2022/11/17 09:24:35;;;;;;;2.70;1.30;;;;;;;-141.59;100.00;61776.25;5094032;28;20215;-79
2022/11/17 09:27:02;;;;;;;3.57;1.60;;;;;;;-141.59;100.00;61776.25;5100960;28;20199;-80
2022/11/17 09:29:30;;;;;;;2.43;1.50;;;;;;;-141.59;100.00;61776.25;5088330;28;20252;-79
2022/11/17 09:31:57;;;;;;;1.63;1.53;;;;;;;-141.59;100.00;61776.25;5083798;28;20208;-79
2022/11/17 09:34:25;;;;;;;2.13;1.43;;;;;;;-141.59;100.00;61776.25;5099552;28;20215;-79
2022/11/17 09:36:53;;;;;;;2.43;1.70;;;;;;;-141.59;100.00;61776.25;5099945;28;20201;-79
2022/11/17 09:39:21;;;;;;;1.73;1.40;;;;;;;-141.59;100.00;61776.25;5087715;28;20196;-80
2022/11/17 09:41:51;;;;;;;1.63;1.50;;;;;;;-141.59;100.00;61776.25;5081959;28;20197;-79
2022/11/17 09:44:29;;;;;;;1.80;1.50;;;;;;;-141.59;100.00;61776.25;5081004;28;20288;-79
2022/11/17 09:47:03;;;;;;;1.83;1.60;;;;;;;-141.59;100.00;61776.25;5083864;28;20204;-79
2022/11/17 09:49:46;;;;;;;2.00;1.37;;;;;;;-141.59;100.00;61776.25;5081434;28;20205;-79
2022/11/17 09:52:20;;;;;;;1.90;1.40;;;;;;;-141.59;100.00;61776.25;5087784;28;20207;-79
2022/11/17 09:54:52;;;;;;;7.43;1.37;;;;;;;-141.59;100.00;61776.25;5080919;28;20235;-79
2022/11/17 09:57:24;;;;;;;2.20;1.10;;;;;;;-141.59;100.00;61776.25;5079206;28;20206;-79
2022/11/17 10:00:02;;;;;;;1.20;1.10;;;;;;;-141.59;100.00;61776.25;5074946;28;20211;-79
2022/11/17 10:02:32;;;;;;;1.50;1.40;;;;;;;-141.59;100.00;61776.25;5097511;28;20215;-79
2022/11/17 10:05:00;;;;;;;2.70;1.10;;;;;;;-141.59;100.00;61776.25;5084063;28;20200;-80
2022/11/17 10:07:30;;;;;;;1.27;1.17;;;;;;;-141.59;100.00;61776.25;5082394;28;20208;-79
2022/11/17 10:10:00;;;;;;;2.90;1.40;;;;;;;-141.59;100.00;61776.25;5075075;28;20216;-79
2022/11/17 10:12:34;;;;;;;1.43;1.10;;;;;;;-141.59;100.00;61776.25;5078218;28;20203;-79
2022/11/17 10:15:18;;;;;;;3.80;1.50;;;;;;;-141.59;100.00;61776.25;5091202;28;20715;-79
2022/11/17 10:17:45;;;;;;;2.23;1.40;;;;;;;-141.59;100.00;61776.25;5077700;28;20227;-79
2022/11/17 10:20:17;;;;;;;2.03;1.33;;;;;;;-141.59;100.00;61776.25;5098518;28;20207;-79
2022/11/17 10:22:47;;;;;;;1.77;1.40;;;;;;;-141.59;100.00;61776.25;5087384;28;20201;-80
2022/11/17 10:25:36;;;;;;;1.30;1.20;;;;;;;-141.59;100.00;61776.25;5084050;28;20254;-79
2022/11/17 10:28:08;;;;;;;4.10;1.30;;;;;;;-141.59;100.00;61776.25;5084162;28;20216;-79
2022/11/17 10:30:36;;;;;;;1.73;1.30;;;;;;;-141.59;100.00;61776.25;5084189;28;20316;-79
2022/11/17 10:33:03;;;;;;;2.97;1.70;;;;;;;-141.59;100.00;61776.25;5072479;28;20213;-79
2022/11/17 10:35:32;;;;;;;2.43;1.60;;;;;;;-141.59;100.00;61776.25;5087578;28;20205;-79
2022/11/17 10:38:04;;;;;;;3.47;1.33;;;;;;;-141.59;100.00;61776.25;5085906;28;20209;-79
2022/11/17 10:40:32;;;;;;;3.80;1.50;;;;;;;-141.59;100.00;61776.25;5081202;28;20201;-79
2022/11/17 10:43:16;;;;;;;6.57;1.60;;;;;;;-141.59;100.00;61776.25;5078538;28;20210;-79
2022/11/17 10:45:44;;;;;;;3.13;1.77;;;;;;;-141.59;100.00;61776.25;5080917;28;20217;-80
2022/11/17 10:48:23;;;;;;;3.37;1.50;;;;;;;-141.59;100.00;61776.25;5078406;28;20193;-79
2022/11/17 10:50:56;;;;;;;3.60;1.83;;;;;;;-141.59;100.00;61776.25;5090878;28;20236;-79
2022/11/17 10:53:29;;;;;;;1.73;1.50;;;;;;;-141.59;100.00;61776.25;5069103;28;20201;-79
2022/11/17 10:56:04;;;;;;;1.40;1.30;;;;;;;-141.59;100.00;61776.25;5077679;28;20229;-79
2022/11/17 10:58:32;;;;;;;3.00;1.40;;;;;;;-141.59;100.00;61776.25;5074419;28;20204;-80
2022/11/17 11:01:02;;;;;;;3.03;1.40;;;;;;;-141.59;100.00;61776.25;5075880;28;20213;-79
2022/11/17 11:03:30;;;;;;;2.80;1.90;;;;;;;-141.59;100.00;61776.25;5076963;28;20197;-79
2022/11/17 11:06:00;;;;;;;1.67;1.27;;;;;;;-141.59;100.00;61776.25;5074528;28;20197;-80
2022/11/17 11:08:36;;;;;;;3.53;1.53;;;;;;;-141.59;100.00;61776.25;5083263;28;20202;-80
2022/11/17 11:11:08;;;;;;;3.33;1.23;;;;;;;-141.59;100.00;61776.25;5079624;28;20308;-80
2022/11/17 11:13:44;;;;;;;3.20;1.63;;;;;;;-141.59;100.00;61776.25;5071919;28;20210;-81
2022/11/17 11:16:12;;;;;;;1.73;1.40;;;;;;;-141.59;100.00;61776.25;5083605;28;20282;-81
2022/11/17 11:18:39;;;;;;;3.07;1.47;;;;;;;-141.59;100.00;61776.25;5082164;28;20202;-80
2022/11/17 11:21:15;;;;;;;2.23;1.40;;;;;;;-141.59;100.00;61776.25;5083368;28;20218;-80
2022/11/17 11:23:54;;;;;;;1.30;1.20;;;;;;;-141.59;100.00;61776.25;5087668;28;20205;-80
2022/11/17 11:26:40;;;;;;;1.37;1.00;;;;;;;-141.59;100.00;61776.25;5078471;28;20247;-80
2022/11/17 11:29:20;;;;;;;2.97;1.40;;;;;;;-141.59;100.00;61776.25;5076809;28;20209;-81
2022/11/17 11:32:00;;;;;;;2.17;1.30;;;;;;;-141.59;100.00;61776.25;5076546;28;20324;-81
2022/11/17 11:34:46;;;;;;;4.47;1.40;;;;;;;-141.59;100.00;61776.25;5073661;28;20219;-81
2022/11/17 11:37:15;;;;;;;2.20;1.50;;;;;;;-141.59;100.00;61776.25;5073508;28;20284;-81
2022/11/17 11:39:54;;;;;;;3.33;1.77;;;;;;;-141.59;100.00;61776.25;5079575;28;20203;-80
2022/11/17 11:42:39;;;;;;;2.20;1.30;;;;;;;-141.59;100.00;61776.25;5078814;28;20208;-80
2022/11/17 11:45:18;;;;;;;7.67;1.60;;;;;;;-141.59;100.00;61776.25;5078958;28;20206;-78
2022/11/17 11:48:10;;;;;;;3.33;1.20;;;;;;;-141.59;100.00;61776.25;5089990;28;20278;-79